createdAt,value
2019-05-29T00:00:25.407Z,9.01
2019-05-29T00:01:24.813Z,9.03
2019-05-29T00:02:24.981Z,8.94
2019-05-29T00:03:25.171Z,9.01
2019-05-29T00:04:25.325Z,8.83
2019-05-29T00:05:26.393Z,8.76
2019-05-29T00:06:25.660Z,8.85
2019-05-29T00:07:25.923Z,8.89
2019-05-29T00:08:25.940Z,8.85
2019-05-29T00:09:26.131Z,8.80
2019-05-29T00:10:26.286Z,8.80
2019-05-29T00:11:27.426Z,8.83
2019-05-29T00:12:26.691Z,8.80
2019-05-29T00:13:26.865Z,8.79
2019-05-29T00:14:27.935Z,8.78
2019-05-29T00:15:27.194Z,8.82
2019-05-29T00:16:27.364Z,8.75
2019-05-29T00:17:28.580Z,8.79
2019-05-29T00:18:27.734Z,8.76
2019-05-29T00:19:27.932Z,8.68
2019-05-29T00:20:28.105Z,8.60
2019-05-29T00:21:28.917Z,8.58
2019-05-29T00:22:28.476Z,8.70
2019-05-29T00:23:28.638Z,8.63
2019-05-29T00:24:28.838Z,8.61
2019-05-29T00:25:29.038Z,8.43
2019-05-29T00:26:29.222Z,8.58
2019-05-29T00:27:29.908Z,8.37
2019-05-29T00:29:03.826Z,8.46
2019-05-29T00:29:30.470Z,8.42
2019-05-29T00:31:03.857Z,8.40
2019-05-29T00:31:30.998Z,8.36
2019-05-29T00:32:30.284Z,8.39
2019-05-29T00:33:30.470Z,8.29
2019-05-29T00:34:31.473Z,8.34
2019-05-29T00:35:30.833Z,8.31
2019-05-29T00:36:30.998Z,8.31
2019-05-29T00:37:31.127Z,8.25
2019-05-29T00:38:31.263Z,8.27
2019-05-29T00:39:31.384Z,8.31
2019-05-29T00:40:31.508Z,8.31
2019-05-29T00:41:31.668Z,8.20
2019-05-29T00:42:31.781Z,8.21
2019-05-29T00:43:31.920Z,8.18
2019-05-29T00:44:34.557Z,8.27
2019-05-29T00:45:33.170Z,8.10
2019-05-29T00:46:32.387Z,8.18
2019-05-29T00:47:32.535Z,8.04
2019-05-29T00:48:32.689Z,8.04
2019-05-29T00:49:32.837Z,7.99
2019-05-29T00:50:34.971Z,7.95
2019-05-29T00:51:33.978Z,7.94
2019-05-29T00:52:33.339Z,7.86
2019-05-29T00:53:33.500Z,7.89
2019-05-29T00:54:34.479Z,7.79
2019-05-29T00:55:33.847Z,7.86
2019-05-29T00:56:34.013Z,7.85
2019-05-29T00:57:34.181Z,7.74
2019-05-29T00:58:34.487Z,7.76
2019-05-29T00:59:35.472Z,7.84
2019-05-29T01:00:34.744Z,7.79
2019-05-29T01:01:35.469Z,7.73
2019-05-29T01:03:07.555Z,7.63
2019-05-29T01:03:36.004Z,7.62
2019-05-29T01:04:36.503Z,7.60
2019-05-29T01:05:36.495Z,7.63
2019-05-29T01:06:36.891Z,7.52
2019-05-29T01:07:37.024Z,7.62
2019-05-29T01:08:36.206Z,7.57
2019-05-29T01:09:36.402Z,7.47
2019-05-29T01:10:36.571Z,7.48
2019-05-29T01:11:37.511Z,7.54
2019-05-29T01:12:36.919Z,7.44
2019-05-29T01:13:37.079Z,7.48
2019-05-29T01:14:49.677Z,7.44
2019-05-29T01:15:39.366Z,7.47
2019-05-29T01:16:37.598Z,7.42
2019-05-29T01:17:37.791Z,7.33
2019-05-29T01:18:37.950Z,7.32
2019-05-29T01:19:39.037Z,7.42
2019-05-29T01:20:38.281Z,7.33
2019-05-29T01:21:38.448Z,7.23
2019-05-29T01:22:38.618Z,7.15
2019-05-29T01:23:39.511Z,7.26
2019-05-29T01:24:39.021Z,7.19
2019-05-29T01:25:40.004Z,7.16
2019-05-29T01:26:39.282Z,7.16
2019-05-29T01:27:39.461Z,7.09
2019-05-29T01:28:39.604Z,7.11
2019-05-29T01:29:39.788Z,7.01
2019-05-29T01:30:39.927Z,7.09
2019-05-29T01:31:40.160Z,6.97
2019-05-29T01:32:40.309Z,7.01
2019-05-29T01:33:40.460Z,6.97
2019-05-29T01:34:40.631Z,7.04
2019-05-29T01:35:40.804Z,6.90
2019-05-29T01:37:16.015Z,6.91
2019-05-29T01:37:41.085Z,6.91
2019-05-29T01:38:41.559Z,6.86
2019-05-29T01:39:42.058Z,6.82
2019-05-29T01:40:41.589Z,6.82
2019-05-29T01:41:41.741Z,6.79
2019-05-29T01:42:41.888Z,6.83
2019-05-29T01:43:42.555Z,6.78
2019-05-29T01:44:42.213Z,6.73
2019-05-29T01:45:42.390Z,6.79
2019-05-29T01:46:42.562Z,6.68
2019-05-29T01:47:43.532Z,6.64
2019-05-29T01:48:43.073Z,6.69
2019-05-29T01:49:43.147Z,6.69
2019-05-29T01:50:43.326Z,6.65
2019-05-29T01:51:44.064Z,6.65
2019-05-29T01:52:43.751Z,6.64
2019-05-29T01:53:43.957Z,6.51
2019-05-29T01:54:44.124Z,6.54
2019-05-29T01:55:44.296Z,6.53
2019-05-29T01:56:44.456Z,6.60
2019-05-29T01:57:44.614Z,6.54
2019-05-29T01:58:44.809Z,6.58
2019-05-29T01:59:44.974Z,6.55
2019-05-29T02:00:45.576Z,6.53
2019-05-29T02:01:45.359Z,6.43
2019-05-29T02:02:45.526Z,6.45
2019-05-29T02:03:45.688Z,6.39
2019-05-29T02:04:45.850Z,6.38
2019-05-29T02:05:46.034Z,6.35
2019-05-29T02:06:46.218Z,6.38
2019-05-29T02:07:46.376Z,6.38
2019-05-29T02:08:46.534Z,6.42
2019-05-29T02:09:46.671Z,6.39
2019-05-29T02:11:19.269Z,6.32
2019-05-29T02:11:47.579Z,6.35
2019-05-29T02:12:47.239Z,6.39
2019-05-29T02:13:47.407Z,6.33
2019-05-29T02:14:48.069Z,6.40
2019-05-29T02:15:47.748Z,6.35
2019-05-29T02:16:48.088Z,6.27
2019-05-29T02:17:48.586Z,6.32
2019-05-29T02:18:48.366Z,6.30
2019-05-29T02:19:49.074Z,6.28
2019-05-29T02:20:48.758Z,6.06
2019-05-29T02:21:49.087Z,6.01
2019-05-29T02:22:49.150Z,6.02
2019-05-29T02:23:49.353Z,5.96
2019-05-29T02:24:50.082Z,5.96
2019-05-29T02:25:50.575Z,5.98
2019-05-29T02:26:49.876Z,5.98
2019-05-29T02:27:50.063Z,5.88
2019-05-29T02:28:50.299Z,5.77
2019-05-29T02:29:51.073Z,5.63
2019-05-29T02:30:50.738Z,5.52
2019-05-29T02:31:50.954Z,5.48
2019-05-29T02:32:51.143Z,5.60
2019-05-29T02:33:51.318Z,5.55
2019-05-29T02:34:51.488Z,5.49
2019-05-29T02:35:52.600Z,5.56
2019-05-29T02:36:51.882Z,5.58
2019-05-29T02:37:52.098Z,5.52
2019-05-29T02:38:52.291Z,5.52
2019-05-29T02:39:52.501Z,5.48
2019-05-29T02:40:53.577Z,5.41
2019-05-29T02:41:53.575Z,5.48
2019-05-29T02:42:53.124Z,5.48
2019-05-29T02:43:54.076Z,5.49
2019-05-29T02:44:53.456Z,5.35
2019-05-29T02:45:55.140Z,5.42
2019-05-29T02:46:54.803Z,5.33
2019-05-29T02:47:53.955Z,5.44
2019-05-29T02:48:54.124Z,5.30
2019-05-29T02:49:54.258Z,5.40
2019-05-29T02:50:54.407Z,5.40
2019-05-29T02:51:54.557Z,5.35
2019-05-29T02:52:54.734Z,5.42
2019-05-29T02:53:54.904Z,5.35
2019-05-29T02:54:55.577Z,5.42
2019-05-29T02:55:56.078Z,5.45
2019-05-29T02:56:55.350Z,5.40
2019-05-29T02:57:55.583Z,5.42
2019-05-29T02:58:55.758Z,5.19
2019-05-29T02:59:55.951Z,5.14
2019-05-29T03:00:56.120Z,5.14
2019-05-29T03:01:56.592Z,5.20
2019-05-29T03:02:57.092Z,5.22
2019-05-29T03:03:57.084Z,5.19
2019-05-29T03:04:56.993Z,5.17
2019-05-29T03:05:57.156Z,5.12
2019-05-29T03:06:57.326Z,5.12
2019-05-29T03:07:58.086Z,5.22
2019-05-29T03:08:58.081Z,5.30
2019-05-29T03:09:57.843Z,5.37
2019-05-29T03:10:58.085Z,5.40
2019-05-29T03:12:00.357Z,5.22
2019-05-29T03:12:59.296Z,5.26
2019-05-29T03:13:58.474Z,5.27
2019-05-29T03:14:59.585Z,5.26
2019-05-29T03:16:10.491Z,5.27
2019-05-29T03:16:59.979Z,5.15
2019-05-29T03:18:00.077Z,5.06
2019-05-29T03:19:34.539Z,5.08
2019-05-29T03:19:59.487Z,4.90
2019-05-29T03:20:59.647Z,4.96
2019-05-29T03:22:00.620Z,4.86
2019-05-29T03:23:00.017Z,4.91
2019-05-29T03:24:00.643Z,4.86
2019-05-29T03:25:00.426Z,4.87
2019-05-29T03:26:00.620Z,4.88
2019-05-29T03:27:00.759Z,4.91
2019-05-29T03:28:00.882Z,4.87
2019-05-29T03:29:01.019Z,4.84
2019-05-29T03:30:01.174Z,4.88
2019-05-29T03:31:02.378Z,4.74
2019-05-29T03:32:02.547Z,4.99
2019-05-29T03:33:01.669Z,5.08
2019-05-29T03:34:02.628Z,5.11
2019-05-29T03:35:02.136Z,5.08
2019-05-29T03:36:02.245Z,5.08
2019-05-29T03:37:02.483Z,5.01
2019-05-29T03:38:03.647Z,5.05
2019-05-29T03:39:02.879Z,5.04
2019-05-29T03:40:03.155Z,5.05
2019-05-29T03:41:03.305Z,5.20
2019-05-29T03:42:03.456Z,5.08
2019-05-29T03:43:03.595Z,5.08
2019-05-29T03:44:04.628Z,5.12
2019-05-29T03:45:04.131Z,5.22
2019-05-29T03:46:04.037Z,5.37
2019-05-29T03:47:05.119Z,5.35
2019-05-29T03:48:05.127Z,5.35
2019-05-29T03:49:04.501Z,5.30
2019-05-29T03:50:04.681Z,5.32
2019-05-29T03:51:05.143Z,5.40
2019-05-29T03:52:05.053Z,5.47
2019-05-29T03:53:38.655Z,5.47
2019-05-29T03:54:05.407Z,5.59
2019-05-29T03:55:05.556Z,5.55
2019-05-29T03:56:05.757Z,5.49
2019-05-29T03:57:05.912Z,5.58
2019-05-29T03:58:06.085Z,5.62
2019-05-29T03:59:07.156Z,5.66
2019-05-29T04:00:06.432Z,5.77
2019-05-29T04:01:06.772Z,5.70
2019-05-29T04:02:07.656Z,5.74
2019-05-29T04:03:06.924Z,5.92
2019-05-29T04:04:07.659Z,5.74
2019-05-29T04:05:07.334Z,5.75
2019-05-29T04:06:07.568Z,5.78
2019-05-29T04:07:07.625Z,5.78
2019-05-29T04:08:07.842Z,5.81
2019-05-29T04:09:08.652Z,5.88
2019-05-29T04:10:08.202Z,5.93
2019-05-29T04:11:08.729Z,5.95
2019-05-29T04:12:08.582Z,5.93
2019-05-29T04:13:08.789Z,5.98
2019-05-29T04:14:09.064Z,6.01
2019-05-29T04:15:09.122Z,6.20
2019-05-29T04:16:09.282Z,6.19
2019-05-29T04:17:09.465Z,6.39
2019-05-29T04:18:09.639Z,6.33
2019-05-29T04:19:09.774Z,6.55
2019-05-29T04:20:09.905Z,6.82
2019-05-29T04:21:10.647Z,6.75
2019-05-29T04:22:10.298Z,7.09
2019-05-29T04:23:10.458Z,7.42
2019-05-29T04:24:10.614Z,7.74
2019-05-29T04:25:11.224Z,7.99
2019-05-29T04:26:11.745Z,7.89
2019-05-29T04:27:43.517Z,8.03
2019-05-29T04:28:11.275Z,8.09
2019-05-29T04:29:11.708Z,8.04
2019-05-29T04:30:11.599Z,7.91
2019-05-29T04:31:12.698Z,7.71
2019-05-29T04:32:12.697Z,7.58
2019-05-29T04:33:12.708Z,7.67
2019-05-29T04:34:12.321Z,7.57
2019-05-29T04:35:12.458Z,7.45
2019-05-29T04:36:12.588Z,7.45
2019-05-29T04:37:13.687Z,7.62
2019-05-29T04:38:12.948Z,7.76
2019-05-29T04:39:14.094Z,7.94
2019-05-29T04:40:13.331Z,7.92
2019-05-29T04:41:13.474Z,8.13
2019-05-29T04:42:13.609Z,8.07
2019-05-29T04:43:13.776Z,7.99
2019-05-29T04:44:13.891Z,8.55
2019-05-29T04:45:14.068Z,8.93
2019-05-29T04:46:14.243Z,9.15
2019-05-29T04:47:15.190Z,8.98
2019-05-29T04:48:15.189Z,9.38
2019-05-29T04:49:14.766Z,9.93
2019-05-29T04:50:14.902Z,10.17
2019-05-29T04:51:15.047Z,9.52
2019-05-29T04:52:15.208Z,9.68
2019-05-29T04:53:15.381Z,10.13
2019-05-29T04:54:15.557Z,10.52
2019-05-29T04:55:15.761Z,10.55
2019-05-29T04:56:16.692Z,10.63
2019-05-29T04:57:16.699Z,10.83
2019-05-29T04:58:17.198Z,10.55
2019-05-29T04:59:17.216Z,10.57
2019-05-29T05:00:16.727Z,9.89
2019-05-29T05:01:50.169Z,9.55
2019-05-29T05:02:16.915Z,9.20
2019-05-29T05:03:17.089Z,9.16
2019-05-29T05:04:17.233Z,9.30
2019-05-29T05:05:19.545Z,9.24
2019-05-29T05:06:18.596Z,8.94
2019-05-29T05:07:18.733Z,8.98
2019-05-29T05:08:18.238Z,8.89
2019-05-29T05:09:18.743Z,9.35
2019-05-29T05:10:18.385Z,9.15
2019-05-29T05:11:18.516Z,9.06
2019-05-29T05:12:19.255Z,9.40
2019-05-29T05:13:19.741Z,9.74
2019-05-29T05:14:19.108Z,9.56
2019-05-29T05:15:19.287Z,9.83
2019-05-29T05:16:19.490Z,10.02
2019-05-29T05:17:26.154Z,10.04
2019-05-29T05:18:21.864Z,10.13
2019-05-29T05:19:19.977Z,10.62
2019-05-29T05:20:20.140Z,10.55
2019-05-29T05:21:20.760Z,10.49
2019-05-29T05:22:20.526Z,10.11
2019-05-29T05:23:20.710Z,9.86
2019-05-29T05:24:21.735Z,9.75
2019-05-29T05:25:21.044Z,9.75
2019-05-29T05:26:21.259Z,9.67
2019-05-29T05:27:21.453Z,9.62
2019-05-29T05:28:21.658Z,9.62
2019-05-29T05:29:21.838Z,9.56
2019-05-29T05:30:22.047Z,9.68
2019-05-29T05:31:22.290Z,9.88
2019-05-29T05:32:22.388Z,10.68
2019-05-29T05:33:23.241Z,11.31
2019-05-29T05:34:23.764Z,11.49
2019-05-29T05:35:57.183Z,11.12
2019-05-29T05:36:23.804Z,11.06
2019-05-29T05:37:23.292Z,10.62
2019-05-29T05:38:23.478Z,10.43
2019-05-29T05:39:24.013Z,10.46
2019-05-29T05:40:23.818Z,10.39
2019-05-29T05:41:24.032Z,10.72
2019-05-29T05:42:24.233Z,11.51
2019-05-29T05:43:24.741Z,12.23
2019-05-29T05:44:25.609Z,12.77
2019-05-29T05:45:24.758Z,13.31
2019-05-29T05:46:25.276Z,13.55
2019-05-29T05:47:43.033Z,13.81
2019-05-29T05:48:26.264Z,14.13
2019-05-29T05:49:26.267Z,14.54
2019-05-29T05:50:25.536Z,14.41
2019-05-29T05:51:25.730Z,14.41
2019-05-29T05:52:26.773Z,14.44
2019-05-29T05:53:26.040Z,14.46
2019-05-29T05:54:26.269Z,14.53
2019-05-29T05:55:27.272Z,13.66
2019-05-29T05:56:26.710Z,13.80
2019-05-29T05:57:26.885Z,14.08
2019-05-29T05:58:27.051Z,14.38
2019-05-29T05:59:27.782Z,14.46
2019-05-29T06:00:27.439Z,14.02
2019-05-29T06:01:27.689Z,13.61
2019-05-29T06:02:27.864Z,12.99
2019-05-29T06:03:27.990Z,13.10
2019-05-29T06:04:28.181Z,13.19
2019-05-29T06:05:29.304Z,13.57
2019-05-29T06:06:28.572Z,13.10
2019-05-29T06:07:28.745Z,12.67
2019-05-29T06:08:29.286Z,12.51
2019-05-29T06:10:03.201Z,12.48
2019-05-29T06:10:29.800Z,12.81
2019-05-29T06:11:29.310Z,13.03
2019-05-29T06:12:30.309Z,12.71
2019-05-29T06:13:29.834Z,12.59
2019-05-29T06:14:29.873Z,12.81
2019-05-29T06:15:30.035Z,12.94
2019-05-29T06:16:30.190Z,13.14
2019-05-29T06:17:30.371Z,13.16
2019-05-29T06:18:30.584Z,13.24
2019-05-29T06:19:30.806Z,13.36
2019-05-29T06:20:30.979Z,13.41
2019-05-29T06:21:31.175Z,13.69
2019-05-29T06:22:32.805Z,13.83
2019-05-29T06:23:32.700Z,13.81
2019-05-29T06:24:33.449Z,13.55
2019-05-29T06:25:33.625Z,13.54
2019-05-29T06:26:32.807Z,13.31
2019-05-29T06:27:33.527Z,12.99
2019-05-29T06:28:33.299Z,13.09
2019-05-29T06:29:33.502Z,12.84
2019-05-29T06:30:34.455Z,12.84
2019-05-29T06:31:35.141Z,13.21
2019-05-29T06:32:33.484Z,13.32
2019-05-29T06:33:35.231Z,13.79
2019-05-29T06:34:33.551Z,13.91
2019-05-29T06:35:35.886Z,14.04
2019-05-29T06:36:35.543Z,13.46
2019-05-29T06:37:33.891Z,13.17
2019-05-29T06:38:34.077Z,13.17
2019-05-29T06:39:35.231Z,13.71
2019-05-29T06:40:36.086Z,13.55
2019-05-29T06:41:35.686Z,13.83
2019-05-29T06:42:35.729Z,14.16
2019-05-29T06:43:35.761Z,14.13
2019-05-29T06:44:36.595Z,14.08
2019-05-29T06:45:35.777Z,13.99
2019-05-29T06:46:36.203Z,13.75
2019-05-29T06:47:36.577Z,13.25
2019-05-29T06:48:46.193Z,13.47
2019-05-29T06:49:37.992Z,13.47
2019-05-29T06:50:37.262Z,13.54
2019-05-29T06:51:37.091Z,13.75
2019-05-29T06:52:37.398Z,14.08
2019-05-29T06:53:37.741Z,14.11
2019-05-29T06:54:37.882Z,13.86
2019-05-29T06:55:39.743Z,13.94
2019-05-29T06:56:37.728Z,14.04
2019-05-29T06:57:38.113Z,14.08
2019-05-29T06:58:38.068Z,13.96
2019-05-29T06:59:38.229Z,13.94
2019-05-29T07:00:39.340Z,13.90
2019-05-29T07:01:39.284Z,13.80
2019-05-29T07:02:38.533Z,13.62
2019-05-29T07:03:39.597Z,13.86
2019-05-29T07:04:40.375Z,14.11
2019-05-29T07:05:39.794Z,14.35
2019-05-29T07:06:38.911Z,14.12
2019-05-29T07:07:40.328Z,14.57
2019-05-29T07:08:44.424Z,15.15
2019-05-29T07:09:41.442Z,15.22
2019-05-29T07:10:40.285Z,15.34
2019-05-29T07:11:39.884Z,15.52
2019-05-29T07:12:40.446Z,15.01
2019-05-29T07:13:43.953Z,14.75
2019-05-29T07:14:44.463Z,14.56
2019-05-29T07:15:42.902Z,14.60
2019-05-29T07:16:49.845Z,14.67
2019-05-29T07:17:42.442Z,14.67
2019-05-29T07:19:17.275Z,14.31
2019-05-29T07:19:53.908Z,14.35
2019-05-29T07:20:43.484Z,14.36
2019-05-29T07:21:42.794Z,14.42
2019-05-29T07:22:43.014Z,14.90
2019-05-29T07:23:46.133Z,14.86
2019-05-29T07:24:43.504Z,14.93
2019-05-29T07:25:43.441Z,14.72
2019-05-29T07:26:43.492Z,14.79
2019-05-29T07:27:42.927Z,15.03
2019-05-29T07:29:05.641Z,14.91
2019-05-29T07:29:45.295Z,15.25
2019-05-29T07:30:49.624Z,14.78
2019-05-29T07:31:45.068Z,14.98
2019-05-29T07:32:51.392Z,15.01
2019-05-29T07:33:47.303Z,15.18
2019-05-29T07:34:59.430Z,15.00
2019-05-29T07:35:46.046Z,14.30
2019-05-29T07:36:44.212Z,14.57
2019-05-29T07:37:45.822Z,14.79
2019-05-29T07:38:54.925Z,14.57
2019-05-29T07:39:47.707Z,15.35
2019-05-29T07:40:47.502Z,15.46
2019-05-29T07:41:46.066Z,15.28
2019-05-29T07:42:50.543Z,14.83
2019-05-29T07:43:48.080Z,15.03
2019-05-29T07:44:46.307Z,14.75
2019-05-29T07:45:46.115Z,15.01
2019-05-29T07:46:47.171Z,15.44
2019-05-29T07:47:46.758Z,15.28
2019-05-29T07:48:49.767Z,15.55
2019-05-29T07:49:49.052Z,15.62
2019-05-29T07:50:48.418Z,15.33
2019-05-29T07:51:48.648Z,15.37
2019-05-29T07:52:47.456Z,15.64
2019-05-29T07:53:48.758Z,16.27
2019-05-29T07:54:48.077Z,15.96
2019-05-29T07:55:49.046Z,15.78
2019-05-29T07:56:49.330Z,15.51
2019-05-29T07:57:49.003Z,15.64
2019-05-29T07:59:01.766Z,16.03
2019-05-29T07:59:51.334Z,15.51
2019-05-29T08:01:09.974Z,15.00
2019-05-29T08:01:50.699Z,14.72
2019-05-29T08:02:49.508Z,15.44
2019-05-29T08:03:49.782Z,16.11
2019-05-29T08:04:50.147Z,16.72
2019-05-29T08:05:52.760Z,16.81
2019-05-29T08:06:54.310Z,16.77
2019-05-29T08:07:50.661Z,16.42
2019-05-29T08:08:49.803Z,16.17
2019-05-29T08:09:50.019Z,15.38
2019-05-29T08:10:50.185Z,16.16
2019-05-29T08:11:50.363Z,16.42
2019-05-29T08:12:55.201Z,16.59
2019-05-29T08:13:52.711Z,17.02
2019-05-29T08:14:51.369Z,16.87
2019-05-29T08:16:02.051Z,16.51
2019-05-29T08:16:53.198Z,16.44
2019-05-29T08:17:51.330Z,16.77
2019-05-29T08:18:52.932Z,17.30
2019-05-29T08:20:03.162Z,17.17
2019-05-29T08:20:53.777Z,16.13
2019-05-29T08:21:52.843Z,16.14
2019-05-29T08:22:52.096Z,16.18
2019-05-29T08:23:52.273Z,16.04
2019-05-29T08:24:52.456Z,15.51
2019-05-29T08:25:52.642Z,15.92
2019-05-29T08:26:52.824Z,16.51
2019-05-29T08:27:52.985Z,16.67
2019-05-29T08:28:53.186Z,16.80
2019-05-29T08:29:53.347Z,17.22
2019-05-29T08:30:56.577Z,16.90
2019-05-29T08:31:54.709Z,17.10
2019-05-29T08:32:53.852Z,17.74
2019-05-29T08:33:54.017Z,18.01
2019-05-29T08:34:54.191Z,17.77
2019-05-29T08:35:59.945Z,17.83
2019-05-29T08:37:06.230Z,17.86
2019-05-29T08:37:56.733Z,17.94
2019-05-29T08:38:54.983Z,18.25
2019-05-29T08:39:57.445Z,18.42
2019-05-29T08:40:55.315Z,17.94
2019-05-29T08:42:21.039Z,17.43
2019-05-29T08:42:58.348Z,16.81
2019-05-29T08:43:55.855Z,16.65
2019-05-29T08:44:56.401Z,16.65
2019-05-29T08:45:56.182Z,16.84
2019-05-29T08:47:09.182Z,17.14
2019-05-29T08:47:57.597Z,17.10
2019-05-29T08:48:56.787Z,17.15
2019-05-29T08:50:16.810Z,17.40
2019-05-29T08:50:59.105Z,16.98
2019-05-29T08:52:11.091Z,17.02
2019-05-29T08:53:02.412Z,17.33
2019-05-29T08:53:57.692Z,17.38
2019-05-29T08:54:57.880Z,17.25
2019-05-29T08:55:58.096Z,16.84
2019-05-29T08:56:58.216Z,16.66
2019-05-29T08:57:58.388Z,16.33
2019-05-29T08:58:58.623Z,16.80
2019-05-29T08:59:58.851Z,16.70
2019-05-29T09:00:59.855Z,16.51
2019-05-29T09:01:59.143Z,16.65
2019-05-29T09:02:59.351Z,17.02
2019-05-29T09:03:59.543Z,17.54
2019-05-29T09:04:59.762Z,17.80
2019-05-29T09:06:08.602Z,18.09
2019-05-29T09:07:02.222Z,18.11
2019-05-29T09:08:00.850Z,18.13
2019-05-29T09:09:00.510Z,18.57
2019-05-29T09:10:00.715Z,17.91
2019-05-29T09:11:00.889Z,17.68
2019-05-29T09:12:01.034Z,17.73
2019-05-29T09:13:04.862Z,18.07
2019-05-29T09:14:02.419Z,18.10
2019-05-29T09:15:01.706Z,18.09
2019-05-29T09:16:01.875Z,18.42
2019-05-29T09:17:02.083Z,17.83
2019-05-29T09:18:02.278Z,17.36
2019-05-29T09:19:02.449Z,16.78
2019-05-29T09:20:02.593Z,17.00
2019-05-29T09:21:03.972Z,17.51
2019-05-29T09:22:03.997Z,17.38
2019-05-29T09:23:03.858Z,17.66
2019-05-29T09:24:03.244Z,17.49
2019-05-29T09:25:03.455Z,18.11
2019-05-29T09:26:14.269Z,18.09
2019-05-29T09:27:05.847Z,17.70
2019-05-29T09:28:04.858Z,17.35
2019-05-29T09:29:04.115Z,17.58
2019-05-29T09:30:04.296Z,18.31
2019-05-29T09:31:04.452Z,17.91
2019-05-29T09:32:04.645Z,17.83
2019-05-29T09:33:04.825Z,17.95
2019-05-29T09:34:04.985Z,18.34
2019-05-29T09:35:05.161Z,17.91
2019-05-29T09:36:05.351Z,16.98
2019-05-29T09:37:05.881Z,17.30
2019-05-29T09:38:06.356Z,17.84
2019-05-29T09:39:05.899Z,17.87
2019-05-29T09:40:06.065Z,17.66
2019-05-29T09:41:06.261Z,18.29
2019-05-29T09:42:06.880Z,17.98
2019-05-29T09:43:07.446Z,17.92
2019-05-29T09:44:06.999Z,17.79
2019-05-29T09:45:07.073Z,17.70
2019-05-29T09:46:07.262Z,17.96
2019-05-29T09:47:07.478Z,17.98
2019-05-29T09:48:07.713Z,18.25
2019-05-29T09:49:08.387Z,18.16
2019-05-29T09:50:08.893Z,18.56
2019-05-29T09:51:20.550Z,18.16
2019-05-29T09:52:10.284Z,18.36
2019-05-29T09:53:08.439Z,18.57
2019-05-29T09:54:08.627Z,18.21
2019-05-29T09:55:09.367Z,17.73
2019-05-29T09:56:09.012Z,18.35
2019-05-29T09:57:09.222Z,19.02
2019-05-29T09:58:09.410Z,18.34
2019-05-29T09:59:10.410Z,18.31
2019-05-29T10:00:10.369Z,17.73
2019-05-29T10:01:22.857Z,17.39
2019-05-29T10:02:12.127Z,17.77
2019-05-29T10:03:10.297Z,17.57
2019-05-29T10:04:10.476Z,18.01
2019-05-29T10:05:10.628Z,18.02
2019-05-29T10:06:10.799Z,18.46
2019-05-29T10:07:10.974Z,18.94
2019-05-29T10:08:11.206Z,19.25
2019-05-29T10:09:11.333Z,19.12
2019-05-29T10:10:11.526Z,18.74
2019-05-29T10:11:11.717Z,18.49
2019-05-29T10:12:11.903Z,18.56
2019-05-29T10:13:12.119Z,18.56
2019-05-29T10:14:12.283Z,18.35
2019-05-29T10:15:12.475Z,18.35
2019-05-29T10:16:12.649Z,18.64
2019-05-29T10:17:13.504Z,19.24
2019-05-29T10:18:30.413Z,19.09
2019-05-29T10:19:15.216Z,18.71
2019-05-29T10:20:14.383Z,18.05
2019-05-29T10:21:13.519Z,17.53
2019-05-29T10:22:13.900Z,17.46
2019-05-29T10:23:13.866Z,17.62
2019-05-29T10:24:13.994Z,17.84
2019-05-29T10:25:14.136Z,18.36
2019-05-29T10:26:14.269Z,18.11
2019-05-29T10:27:14.401Z,18.28
2019-05-29T10:28:14.886Z,18.91
2019-05-29T10:29:14.770Z,19.23
2019-05-29T10:30:14.901Z,19.21
2019-05-29T10:31:15.061Z,19.01
2019-05-29T10:32:15.207Z,18.83
2019-05-29T10:33:15.362Z,18.49
2019-05-29T10:34:15.574Z,18.05
2019-05-29T10:35:15.776Z,18.16
2019-05-29T10:36:15.904Z,18.07
2019-05-29T10:37:18.404Z,18.16
2019-05-29T10:38:17.875Z,18.10
2019-05-29T10:39:16.369Z,18.51
2019-05-29T10:40:16.507Z,18.38
2019-05-29T10:41:16.681Z,18.25
2019-05-29T10:42:20.460Z,17.99
2019-05-29T10:43:33.250Z,18.16
2019-05-29T10:44:19.141Z,19.07
2019-05-29T10:45:17.233Z,19.23
2019-05-29T10:46:17.920Z,19.15
2019-05-29T10:47:17.603Z,19.35
2019-05-29T10:48:17.780Z,19.17
2019-05-29T10:49:17.955Z,18.91
2019-05-29T10:50:18.098Z,18.99
2019-05-29T10:51:18.278Z,18.93
2019-05-29T10:52:18.391Z,18.90
2019-05-29T10:53:18.625Z,18.99
2019-05-29T10:54:18.797Z,19.61
2019-05-29T10:55:18.952Z,19.24
2019-05-29T10:56:21.204Z,18.82
2019-05-29T10:57:20.235Z,18.60
2019-05-29T10:58:19.452Z,17.99
2019-05-29T10:59:19.660Z,17.92
2019-05-29T11:00:20.833Z,18.49
2019-05-29T11:01:20.897Z,18.66
2019-05-29T11:02:20.159Z,19.28
2019-05-29T11:03:20.332Z,19.57
2019-05-29T11:04:20.475Z,19.49
2019-05-29T11:05:20.660Z,19.25
2019-05-29T11:06:21.797Z,19.39
2019-05-29T11:07:20.937Z,20.22
2019-05-29T11:08:21.106Z,20.50
2019-05-29T11:09:21.271Z,20.01
2019-05-29T11:10:21.432Z,19.65
2019-05-29T11:11:21.593Z,20.15
2019-05-29T11:12:21.792Z,20.31
2019-05-29T11:13:21.970Z,20.12
2019-05-29T11:14:22.142Z,19.23
2019-05-29T11:15:22.305Z,18.89
2019-05-29T11:16:22.462Z,18.84
2019-05-29T11:17:22.644Z,18.78
2019-05-29T11:18:22.799Z,18.54
2019-05-29T11:19:26.097Z,18.39
2019-05-29T11:20:24.195Z,19.13
2019-05-29T11:21:23.368Z,20.00
2019-05-29T11:22:26.601Z,19.39
2019-05-29T11:23:24.668Z,20.04
2019-05-29T11:24:23.792Z,20.69
2019-05-29T11:25:27.575Z,20.73
2019-05-29T11:26:25.136Z,20.15
2019-05-29T11:27:26.134Z,19.30
2019-05-29T11:28:25.902Z,19.07
2019-05-29T11:29:24.666Z,19.43
2019-05-29T11:30:25.398Z,19.49
2019-05-29T11:31:25.065Z,19.64
2019-05-29T11:32:25.289Z,19.53
2019-05-29T11:33:25.458Z,19.75
2019-05-29T11:34:25.634Z,19.90
2019-05-29T11:35:25.790Z,19.71
2019-05-29T11:36:26.903Z,19.47
2019-05-29T11:37:26.421Z,19.40
2019-05-29T11:38:26.313Z,19.39
2019-05-29T11:39:26.439Z,19.16
2019-05-29T11:40:26.578Z,19.35
2019-05-29T11:41:26.960Z,20.12
2019-05-29T11:42:28.323Z,20.57
2019-05-29T11:43:28.908Z,20.15
2019-05-29T11:44:27.295Z,20.30
2019-05-29T11:45:27.457Z,20.97
2019-05-29T11:46:27.613Z,21.37
2019-05-29T11:47:27.827Z,21.67
2019-05-29T11:48:28.911Z,21.70
2019-05-29T11:49:28.183Z,21.16
2019-05-29T11:50:28.360Z,20.73
2019-05-29T11:51:29.295Z,20.82
2019-05-29T11:52:41.702Z,21.22
2019-05-29T11:53:30.951Z,21.24
2019-05-29T11:54:29.101Z,20.93
2019-05-29T11:55:29.248Z,21.61
2019-05-29T11:56:29.410Z,21.58
2019-05-29T11:57:29.587Z,20.83
2019-05-29T11:58:31.597Z,20.85
2019-05-29T11:59:30.958Z,20.12
2019-05-29T12:00:30.928Z,20.00
2019-05-29T12:01:48.632Z,20.16
2019-05-29T12:02:31.462Z,20.27
2019-05-29T12:03:30.614Z,20.54
2019-05-29T12:04:30.785Z,21.31
2019-05-29T12:05:30.961Z,21.22
2019-05-29T12:06:31.178Z,20.57
2019-05-29T12:07:31.354Z,20.38
2019-05-29T12:08:32.419Z,19.67
2019-05-29T12:09:33.524Z,19.53
2019-05-29T12:10:32.887Z,20.44
2019-05-29T12:11:32.031Z,20.98
2019-05-29T12:12:32.191Z,21.59
2019-05-29T12:13:32.916Z,21.59
2019-05-29T12:14:32.573Z,22.41
2019-05-29T12:15:32.800Z,22.38
2019-05-29T12:16:32.947Z,21.93
2019-05-29T12:17:33.970Z,20.05
2019-05-29T12:18:33.313Z,19.52
2019-05-29T12:19:33.477Z,19.67
2019-05-29T12:20:33.671Z,20.02
2019-05-29T12:21:33.808Z,21.08
2019-05-29T12:22:33.965Z,21.26
2019-05-29T12:23:34.114Z,21.00
2019-05-29T12:24:34.256Z,20.87
2019-05-29T12:25:34.469Z,21.12
2019-05-29T12:26:34.640Z,21.53
2019-05-29T12:27:34.782Z,22.08
2019-05-29T12:28:34.943Z,21.93
2019-05-29T12:29:35.108Z,22.52
2019-05-29T12:30:35.252Z,22.27
2019-05-29T12:31:35.434Z,22.26
2019-05-29T12:32:35.567Z,21.48
2019-05-29T12:33:35.715Z,20.50
2019-05-29T12:34:35.862Z,20.54
2019-05-29T12:35:36.923Z,20.12
2019-05-29T12:36:36.186Z,19.65
2019-05-29T12:37:36.323Z,19.98
2019-05-29T12:38:36.942Z,20.13
2019-05-29T12:39:36.708Z,20.87
2019-05-29T12:40:36.848Z,21.48
2019-05-29T12:41:37.075Z,21.68
2019-05-29T12:42:37.245Z,22.12
2019-05-29T12:43:37.397Z,21.96
2019-05-29T12:44:37.551Z,22.08
2019-05-29T12:45:38.438Z,22.70
2019-05-29T12:46:37.926Z,23.03
2019-05-29T12:47:38.071Z,22.82
2019-05-29T12:48:38.259Z,22.46
2019-05-29T12:49:38.594Z,22.67
2019-05-29T12:50:38.531Z,23.18
2019-05-29T12:51:38.704Z,22.86
2019-05-29T12:52:38.862Z,22.15
2019-05-29T12:53:39.061Z,21.53
2019-05-29T12:54:39.208Z,21.82
2019-05-29T12:55:39.353Z,20.46
2019-05-29T12:56:39.497Z,20.01
2019-05-29T12:57:39.685Z,19.55
2019-05-29T12:58:39.821Z,20.20
2019-05-29T12:59:39.966Z,20.10
2019-05-29T13:00:40.933Z,20.38
2019-05-29T13:01:40.317Z,20.48
2019-05-29T13:02:40.488Z,20.85
2019-05-29T13:03:40.621Z,21.31
2019-05-29T13:05:06.206Z,21.61